createdAt,value
2018-05-02T00:02:05.598Z,92.50
2018-05-02T00:04:39.247Z,92.60
2018-05-02T00:07:12.932Z,92.50
2018-05-02T00:09:46.611Z,92.50
2018-05-02T00:12:20.414Z,92.50
2018-05-02T00:14:54.151Z,92.70
2018-05-02T00:17:28.026Z,92.70
2018-05-02T00:20:01.822Z,92.70
2018-05-02T00:22:35.604Z,92.90
2018-05-02T00:25:09.308Z,92.40
2018-05-02T00:27:43.102Z,92.60
2018-05-02T00:30:17.608Z,92.90
2018-05-02T00:32:51.311Z,92.80
2018-05-02T00:35:25.062Z,92.90
2018-05-02T00:37:58.687Z,93.10
2018-05-02T00:40:32.320Z,93.20
2018-05-02T00:43:06.116Z,93.40
2018-05-02T00:45:39.909Z,93.50
2018-05-02T00:48:13.745Z,93.60
2018-05-02T00:50:47.557Z,94.00
2018-05-02T00:53:21.372Z,94.20
2018-05-02T00:55:55.990Z,94.00
2018-05-02T00:58:30.480Z,93.90
2018-05-02T01:01:05.136Z,94.00
2018-05-02T01:03:38.832Z,94.00
2018-05-02T01:06:12.708Z,94.40
2018-05-02T01:08:48.036Z,94.60
2018-05-02T01:11:21.656Z,94.60
2018-05-02T01:13:56.285Z,94.80
2018-05-02T01:16:30.077Z,94.70
2018-05-02T01:19:03.831Z,94.80
2018-05-02T01:21:37.633Z,94.80
2018-05-02T01:24:11.309Z,94.70
2018-05-02T01:26:45.148Z,94.60
2018-05-02T01:29:19.741Z,94.70
2018-05-02T01:31:53.464Z,94.70
2018-05-02T01:34:27.193Z,95.00
2018-05-02T01:37:00.858Z,94.90
2018-05-02T01:39:34.709Z,94.90
2018-05-02T01:42:08.366Z,95.00
2018-05-02T01:44:41.975Z,95.00
2018-05-02T01:47:15.740Z,94.90
2018-05-02T01:49:49.370Z,94.70
2018-05-02T01:52:23.070Z,94.50
2018-05-02T01:54:57.609Z,94.30
2018-05-02T01:57:31.232Z,94.30
2018-05-02T02:00:04.858Z,94.40
2018-05-02T02:02:38.664Z,94.60
2018-05-02T02:05:12.440Z,94.20
2018-05-02T02:07:47.063Z,94.30
2018-05-02T02:10:20.811Z,94.30
2018-05-02T02:12:55.241Z,94.40
2018-05-02T02:15:29.024Z,94.40
2018-05-02T02:18:02.981Z,94.40
2018-05-02T02:20:36.812Z,94.50
2018-05-02T02:23:11.423Z,94.40
2018-05-02T02:25:45.167Z,94.40
2018-05-02T02:28:19.725Z,93.70
2018-05-02T02:30:53.459Z,93.70
2018-05-02T02:33:27.220Z,93.10
2018-05-02T02:36:00.855Z,92.90
2018-05-02T02:38:35.479Z,92.90
2018-05-02T02:41:09.213Z,92.90
2018-05-02T02:43:43.009Z,93.00
2018-05-02T02:46:16.799Z,93.20
2018-05-02T02:48:50.474Z,93.20
2018-05-02T02:51:24.329Z,93.30
2018-05-02T02:53:58.190Z,93.70
2018-05-02T02:56:32.015Z,93.90
2018-05-02T02:59:05.868Z,94.00
2018-05-02T03:01:39.527Z,94.30
2018-05-02T03:04:14.157Z,94.10
2018-05-02T03:06:48.676Z,94.10
2018-05-02T03:09:22.524Z,94.10
2018-05-02T03:11:56.291Z,94.20
2018-05-02T03:14:30.036Z,94.00
2018-05-02T03:17:03.612Z,94.00
2018-05-02T03:19:37.383Z,94.10
2018-05-02T03:22:11.059Z,93.90
2018-05-02T03:24:44.769Z,94.20
2018-05-02T03:27:19.335Z,94.00
2018-05-02T03:29:53.196Z,94.00
2018-05-02T03:32:27.836Z,94.30
2018-05-02T03:35:01.724Z,94.00
2018-05-02T03:37:35.472Z,94.30
2018-05-02T03:40:09.080Z,94.30
2018-05-02T03:42:42.642Z,94.30
2018-05-02T03:45:17.127Z,94.10
2018-05-02T03:47:50.815Z,94.20
2018-05-02T03:50:24.504Z,93.40
2018-05-02T03:52:58.167Z,93.20
2018-05-02T03:55:32.625Z,93.00
2018-05-02T03:58:06.380Z,92.70
2018-05-02T04:00:52.115Z,92.50
2018-05-02T04:03:37.958Z,92.20
2018-05-02T04:06:29.266Z,92.00
2018-05-02T04:09:03.135Z,91.40
2018-05-02T04:11:37.535Z,91.60
2018-05-02T04:14:11.295Z,91.50
2018-05-02T04:16:45.048Z,91.90
2018-05-02T04:19:18.699Z,91.90
2018-05-02T04:21:53.205Z,91.40
2018-05-02T04:24:26.873Z,91.40
2018-05-02T04:27:02.243Z,90.90
2018-05-02T04:29:35.944Z,90.90
2018-05-02T04:32:09.769Z,90.90
2018-05-02T04:34:43.455Z,91.30
2018-05-02T04:37:17.175Z,91.70
2018-05-02T04:39:50.795Z,91.70
2018-05-02T04:42:24.596Z,91.70
2018-05-02T04:44:58.407Z,91.80
2018-05-02T04:47:32.188Z,92.20
2018-05-02T04:50:06.026Z,91.90
2018-05-02T04:52:40.504Z,91.20
2018-05-02T04:55:14.334Z,91.20
2018-05-02T04:57:48.730Z,90.30
2018-05-02T05:00:22.544Z,90.30
2018-05-02T05:02:56.185Z,90.80
2018-05-02T05:05:30.757Z,90.90
2018-05-02T05:08:04.622Z,90.90
2018-05-02T05:10:38.385Z,91.20
2018-05-02T05:13:12.079Z,91.50
2018-05-02T05:15:45.872Z,91.30
2018-05-02T05:18:19.702Z,91.40
2018-05-02T05:20:53.680Z,91.10
2018-05-02T05:23:27.354Z,91.00
2018-05-02T05:26:01.196Z,90.80
2018-05-02T05:28:34.966Z,90.70
2018-05-02T05:31:08.780Z,90.50
2018-05-02T05:33:42.565Z,90.80
2018-05-02T05:36:16.485Z,90.50
2018-05-02T05:38:50.229Z,90.30
2018-05-02T05:41:23.888Z,88.90
2018-05-02T05:43:57.623Z,87.20
2018-05-02T05:46:32.137Z,88.40
2018-05-02T05:49:05.715Z,88.40
2018-05-02T05:51:40.208Z,89.40
2018-05-02T05:54:13.984Z,89.40
2018-05-02T05:56:47.848Z,88.40
2018-05-02T05:59:22.445Z,90.00
2018-05-02T06:01:56.162Z,90.00
2018-05-02T06:04:30.525Z,90.70
2018-05-02T06:07:04.334Z,90.70
2018-05-02T06:09:39.058Z,90.80
2018-05-02T06:12:12.709Z,90.00
2018-05-02T06:14:46.540Z,89.60
2018-05-02T06:17:20.312Z,89.70
2018-05-02T06:19:53.938Z,87.90
2018-05-02T06:22:27.705Z,88.00
2018-05-02T06:25:01.490Z,87.50
2018-05-02T06:27:35.265Z,85.80
2018-05-02T06:30:09.035Z,85.50
2018-05-02T06:32:42.655Z,85.60
2018-05-02T06:35:17.281Z,86.50
2018-05-02T06:37:51.829Z,87.40
2018-05-02T06:40:25.444Z,87.40
2018-05-02T06:42:59.260Z,88.10
2018-05-02T06:45:33.031Z,87.30
2018-05-02T06:48:06.836Z,87.50
2018-05-02T06:50:41.739Z,88.00
2018-05-02T06:53:15.376Z,88.00
2018-05-02T06:55:49.021Z,87.80
2018-05-02T06:58:22.765Z,88.30
2018-05-02T07:00:56.590Z,86.80
2018-05-02T07:03:30.424Z,86.40
2018-05-02T07:06:04.369Z,86.20
2018-05-02T07:08:38.869Z,84.30
2018-05-02T07:11:12.449Z,84.20
2018-05-02T07:13:46.216Z,83.00
2018-05-02T07:16:19.938Z,83.90
2018-05-02T07:18:53.819Z,84.90
2018-05-02T07:21:27.636Z,85.30
2018-05-02T07:24:01.339Z,86.00
2018-05-02T07:26:35.132Z,85.10
2018-05-02T07:29:09.568Z,85.70
2018-05-02T07:31:43.399Z,85.60
2018-05-02T07:34:17.998Z,86.20
2018-05-02T07:36:52.608Z,87.30
2018-05-02T07:39:26.267Z,87.30
2018-05-02T07:42:00.080Z,87.00
2018-05-02T07:44:33.729Z,88.00
2018-05-02T07:47:07.567Z,87.90
2018-05-02T07:49:42.233Z,87.50
2018-05-02T07:52:16.784Z,86.80
2018-05-02T07:54:50.589Z,86.70
2018-05-02T07:57:24.377Z,85.30
2018-05-02T07:59:58.185Z,84.60
2018-05-02T08:02:31.901Z,82.30
2018-05-02T08:05:05.599Z,81.20
2018-05-02T08:07:39.339Z,80.20
2018-05-02T08:10:13.092Z,80.60
2018-05-02T08:12:46.888Z,81.30
2018-05-02T08:15:20.733Z,81.10
2018-05-02T08:17:54.672Z,79.60
2018-05-02T08:20:28.413Z,79.60
2018-05-02T08:23:02.174Z,78.60
2018-05-02T08:25:36.015Z,76.30
2018-05-02T08:28:09.767Z,72.10
2018-05-02T08:30:43.596Z,73.60
2018-05-02T08:33:18.164Z,70.30
2018-05-02T08:35:51.938Z,70.30
2018-05-02T08:38:25.768Z,70.70
2018-05-02T08:40:59.580Z,70.40
2018-05-02T08:43:33.372Z,66.50
2018-05-02T08:46:07.129Z,67.50
2018-05-02T08:48:41.007Z,62.90
2018-05-02T08:51:14.778Z,65.40
2018-05-02T08:53:48.450Z,59.60
2018-05-02T08:56:22.932Z,58.60
2018-05-02T08:58:56.703Z,58.50
2018-05-02T09:01:31.328Z,56.80
2018-05-02T09:04:05.096Z,56.70
2018-05-02T09:06:38.884Z,63.10
2018-05-02T09:09:12.585Z,63.40
2018-05-02T09:11:46.422Z,59.60
2018-05-02T09:14:20.213Z,57.80
2018-05-02T09:16:54.792Z,57.90
2018-05-02T09:19:28.461Z,57.90
2018-05-02T09:22:02.409Z,57.40
2018-05-02T09:24:36.039Z,58.40
2018-05-02T09:27:09.665Z,56.30
2018-05-02T09:29:43.468Z,56.30
2018-05-02T09:32:17.284Z,55.60
2018-05-02T09:34:51.100Z,54.60
2018-05-02T09:37:24.796Z,54.30
2018-05-02T09:39:58.659Z,53.80
2018-05-02T09:42:32.435Z,52.20
2018-05-02T09:45:06.100Z,52.60
2018-05-02T09:47:39.880Z,53.30
2018-05-02T09:50:13.638Z,53.80
2018-05-02T09:52:48.206Z,55.10
2018-05-02T09:55:22.735Z,54.50
2018-05-02T09:57:58.140Z,54.80
2018-05-02T10:00:31.803Z,54.80
2018-05-02T10:03:05.561Z,53.40
2018-05-02T10:05:39.529Z,52.50
2018-05-02T10:08:14.151Z,52.00
2018-05-02T10:10:47.908Z,52.00
2018-05-02T10:13:21.766Z,51.30
2018-05-02T10:15:55.578Z,50.80
2018-05-02T10:18:29.451Z,51.70
2018-05-02T10:21:03.151Z,52.50
2018-05-02T10:23:36.853Z,52.90
2018-05-02T10:26:10.739Z,53.10
2018-05-02T10:28:44.499Z,52.50
2018-05-02T10:31:18.111Z,53.10
2018-05-02T10:33:51.743Z,52.60
2018-05-02T10:36:25.440Z,53.80
2018-05-02T10:38:59.989Z,53.80
2018-05-02T10:41:33.807Z,53.80
2018-05-02T10:44:07.629Z,53.00
2018-05-02T10:46:42.272Z,53.50
2018-05-02T10:49:16.065Z,53.50
2018-05-02T10:51:49.977Z,55.60
2018-05-02T10:54:23.664Z,54.70
2018-05-02T10:56:57.527Z,54.90
2018-05-02T10:59:31.337Z,55.40
2018-05-02T11:02:05.941Z,54.90
2018-05-02T11:04:39.512Z,54.90
2018-05-02T11:07:13.369Z,55.10
2018-05-02T11:09:47.257Z,54.30
2018-05-02T11:12:21.741Z,53.50
2018-05-02T11:14:56.331Z,52.40
2018-05-02T11:17:30.897Z,53.10
2018-05-02T11:20:04.673Z,53.10
2018-05-02T11:22:39.031Z,50.90
2018-05-02T11:25:12.853Z,50.90
2018-05-02T11:27:46.681Z,50.30
2018-05-02T11:30:20.415Z,50.70
2018-05-02T11:32:54.193Z,49.80
2018-05-02T11:35:27.980Z,48.70
2018-05-02T11:38:01.880Z,49.00
2018-05-02T11:40:35.668Z,49.10
2018-05-02T11:43:09.360Z,48.80
2018-05-02T11:45:43.229Z,47.90
2018-05-02T11:48:16.998Z,48.10
2018-05-02T11:50:50.689Z,49.00
2018-05-02T11:53:24.467Z,48.30
2018-05-02T11:55:58.344Z,48.70
2018-05-02T11:58:32.119Z,47.90
2018-05-02T12:01:06.761Z,46.70
2018-05-02T12:03:40.430Z,46.60
2018-05-02T12:06:14.296Z,46.70
2018-05-02T12:08:48.823Z,46.60
2018-05-02T12:11:22.553Z,46.40
2018-05-02T12:13:56.255Z,46.10
2018-05-02T12:16:30.062Z,44.90
2018-05-02T12:19:04.664Z,44.00
2018-05-02T12:21:39.118Z,44.00
2018-05-02T12:24:13.610Z,42.90
2018-05-02T12:26:47.416Z,42.90
2018-05-02T12:29:21.143Z,43.70
2018-05-02T12:31:55.651Z,46.00
2018-05-02T12:34:29.497Z,45.80
2018-05-02T12:37:04.069Z,46.60
2018-05-02T12:39:37.856Z,46.60
2018-05-02T12:42:12.436Z,47.50
2018-05-02T12:44:47.090Z,47.40
2018-05-02T12:47:20.772Z,46.90
2018-05-02T12:49:54.440Z,46.40
2018-05-02T12:52:28.224Z,45.10
2018-05-02T12:55:02.003Z,46.20
2018-05-02T12:57:35.569Z,46.80
2018-05-02T13:00:09.251Z,46.00
2018-05-02T13:02:43.915Z,45.60
2018-05-02T13:05:18.529Z,46.40
2018-05-02T13:07:52.336Z,46.20
2018-05-02T13:10:26.840Z,46.40
2018-05-02T13:13:00.643Z,46.40
2018-05-02T13:15:34.503Z,46.60
2018-05-02T13:18:09.000Z,47.60
2018-05-02T13:20:44.219Z,48.20
2018-05-02T13:23:18.087Z,48.20
2018-05-02T13:25:52.760Z,48.20
2018-05-02T13:28:26.472Z,48.20
2018-05-02T13:31:00.275Z,47.90
2018-05-02T13:33:34.909Z,48.10
2018-05-02T13:36:09.508Z,48.10
2018-05-02T13:38:43.240Z,48.10
2018-05-02T13:41:17.013Z,48.40
2018-05-02T13:43:50.914Z,47.80
2018-05-02T13:46:24.843Z,48.60
2018-05-02T13:48:58.686Z,49.40
2018-05-02T13:51:32.362Z,49.90
2018-05-02T13:54:06.986Z,50.00
2018-05-02T13:56:41.579Z,48.90
2018-05-02T13:59:15.352Z,48.90
2018-05-02T14:01:49.076Z,49.80
2018-05-02T14:04:23.454Z,49.60
2018-05-02T14:06:57.948Z,49.00
2018-05-02T14:09:31.762Z,48.80
2018-05-02T14:12:05.501Z,49.10
2018-05-02T14:14:40.057Z,48.60
2018-05-02T14:17:13.659Z,49.00
2018-05-02T14:19:47.420Z,48.70
2018-05-02T14:22:21.033Z,48.80
2018-05-02T14:24:55.627Z,48.60
2018-05-02T14:27:29.468Z,48.60
2018-05-02T14:30:03.119Z,48.40
2018-05-02T14:32:36.977Z,48.90
2018-05-02T14:35:10.542Z,48.80
2018-05-02T14:37:45.181Z,47.60
2018-05-02T14:40:19.768Z,47.60
2018-05-02T14:42:53.524Z,47.60
2018-05-02T14:45:27.346Z,47.90
2018-05-02T14:48:01.169Z,48.10
2018-05-02T14:50:34.972Z,47.50
2018-05-02T14:53:08.643Z,48.20
2018-05-02T14:55:43.219Z,47.50
2018-05-02T14:58:16.955Z,47.50
2018-05-02T15:00:50.926Z,47.50
2018-05-02T15:03:24.749Z,47.80
2018-05-02T15:05:59.913Z,49.20
2018-05-02T15:08:33.797Z,49.20
2018-05-02T15:11:08.679Z,49.60
2018-05-02T15:13:42.385Z,49.60
2018-05-02T15:16:16.201Z,48.60
2018-05-02T15:18:49.973Z,48.70
2018-05-02T15:21:23.828Z,48.10
2018-05-02T15:23:58.355Z,48.70
2018-05-02T15:26:32.007Z,48.70
2018-05-02T15:29:05.816Z,49.50
2018-05-02T15:31:39.729Z,49.50
2018-05-02T15:34:14.256Z,49.70
2018-05-02T15:36:48.764Z,50.00
2018-05-02T15:39:23.403Z,50.00
2018-05-02T15:41:57.874Z,50.60
2018-05-02T15:44:31.633Z,50.60
2018-05-02T15:47:05.349Z,50.10
2018-05-02T15:49:39.932Z,51.20
2018-05-02T15:52:13.663Z,51.20
2018-05-02T15:54:47.319Z,51.50
2018-05-02T15:57:21.953Z,52.20
2018-05-02T15:59:55.741Z,52.20
2018-05-02T16:02:29.526Z,52.40
2018-05-02T16:05:03.322Z,52.10
2018-05-02T16:07:37.916Z,54.30
2018-05-02T16:10:12.411Z,53.10
2018-05-02T16:12:46.066Z,53.10
2018-05-02T16:15:20.626Z,54.30
2018-05-02T16:17:55.107Z,54.70
2018-05-02T16:20:28.756Z,54.70
2018-05-02T16:23:02.514Z,55.30
2018-05-02T16:25:37.088Z,56.40
2018-05-02T16:28:11.751Z,57.30
2018-05-02T16:30:46.245Z,56.30
2018-05-02T16:33:20.755Z,56.40
2018-05-02T16:35:54.509Z,56.20
2018-05-02T16:38:29.012Z,55.80
2018-05-02T16:41:02.755Z,55.80
2018-05-02T16:43:37.225Z,57.00
2018-05-02T16:46:10.920Z,56.90
2018-05-02T16:48:45.520Z,58.00
2018-05-02T16:51:19.183Z,57.80
2018-05-02T16:53:52.997Z,58.60
2018-05-02T16:56:26.775Z,58.70
2018-05-02T16:59:01.333Z,60.00
2018-05-02T17:01:35.408Z,60.00
2018-05-02T17:04:09.953Z,60.10
2018-05-02T17:06:44.490Z,60.90
2018-05-02T17:09:18.204Z,60.90
2018-05-02T17:11:52.032Z,60.80
2018-05-02T17:14:25.803Z,61.10
2018-05-02T17:16:59.485Z,59.80
2018-05-02T17:19:33.900Z,60.90
2018-05-02T17:22:07.695Z,60.90
2018-05-02T17:24:41.400Z,61.20
2018-05-02T17:27:15.153Z,62.40
2018-05-02T17:29:49.718Z,61.50
2018-05-02T17:32:24.352Z,62.20
2018-05-02T17:34:58.028Z,62.20
2018-05-02T17:37:31.842Z,61.40
2018-05-02T17:40:05.554Z,62.00
2018-05-02T17:42:40.103Z,63.10
2018-05-02T17:45:14.492Z,63.80
2018-05-02T17:47:48.249Z,63.80
2018-05-02T17:50:21.993Z,64.30
2018-05-02T17:52:55.643Z,64.90
2018-05-02T17:55:29.400Z,65.50
2018-05-02T17:58:03.161Z,66.70
2018-05-02T18:00:36.732Z,66.70
2018-05-02T18:03:10.538Z,66.30
2018-05-02T18:05:44.344Z,66.70
2018-05-02T18:08:17.998Z,67.00
2018-05-02T18:10:52.544Z,69.10
2018-05-02T18:13:26.245Z,69.00
2018-05-02T18:16:00.020Z,71.30
2018-05-02T18:18:33.861Z,72.20
2018-05-02T18:21:07.500Z,72.70
2018-05-02T18:23:41.205Z,76.30
2018-05-02T18:26:14.804Z,76.00
2018-05-02T18:28:48.483Z,77.00
2018-05-02T18:31:23.008Z,76.80
2018-05-02T18:33:56.746Z,76.70
2018-05-02T18:36:30.555Z,76.80
2018-05-02T18:39:04.380Z,75.70
2018-05-02T18:41:38.118Z,77.90
2018-05-02T18:44:12.680Z,79.70
2018-05-02T18:46:46.512Z,79.70
2018-05-02T18:49:21.057Z,76.20
2018-05-02T18:51:54.784Z,76.20
2018-05-02T18:54:28.634Z,74.40
2018-05-02T18:57:02.332Z,74.30
2018-05-02T18:59:36.172Z,74.30
2018-05-02T19:02:11.471Z,74.30
2018-05-02T19:04:46.052Z,73.90
2018-05-02T19:07:19.815Z,73.90
2018-05-02T19:09:53.554Z,74.30
2018-05-02T19:12:27.216Z,74.20
2018-05-02T19:15:01.028Z,75.70
2018-05-02T19:17:34.813Z,76.90
2018-05-02T19:20:14.253Z,80.70
2018-05-02T19:22:48.073Z,77.70
2018-05-02T19:25:27.453Z,78.70
2018-05-02T19:28:01.826Z,78.50
2018-05-02T19:30:35.576Z,78.40
2018-05-02T19:33:15.056Z,78.00
2018-05-02T19:35:48.885Z,79.60
2018-05-02T19:38:22.700Z,79.30
2018-05-02T19:41:02.973Z,78.10
2018-05-02T19:43:42.427Z,78.10
2018-05-02T19:46:16.240Z,78.00
2018-05-02T19:48:49.963Z,78.10
2018-05-02T19:51:29.329Z,77.80
2018-05-02T19:54:02.940Z,78.60
2018-05-02T19:56:36.727Z,79.00
2018-05-02T19:59:10.434Z,78.20
2018-05-02T20:01:49.998Z,78.60
2018-05-02T20:04:23.577Z,78.10
2018-05-02T20:06:57.197Z,78.60
2018-05-02T20:09:36.845Z,77.80
2018-05-02T20:12:16.516Z,78.10
2018-05-02T20:14:51.173Z,77.90
2018-05-02T20:17:25.022Z,77.90
2018-05-02T20:19:58.787Z,78.10
2018-05-02T20:22:32.642Z,78.90
2018-05-02T20:25:07.248Z,77.70
2018-05-02T20:27:40.956Z,78.30
2018-05-02T20:30:15.560Z,78.10
2018-05-02T20:32:50.178Z,77.20
2018-05-02T20:35:24.793Z,77.50
2018-05-02T20:37:59.207Z,77.70
2018-05-02T20:40:32.959Z,77.70
2018-05-02T20:43:06.756Z,77.40
2018-05-02T20:45:40.360Z,77.00
2018-05-02T20:48:14.977Z,77.10
2018-05-02T20:50:48.788Z,77.00
2018-05-02T20:53:23.408Z,77.30
2018-05-02T20:55:57.078Z,77.30
2018-05-02T20:58:30.811Z,77.40
2018-05-02T21:01:04.656Z,77.20
2018-05-02T21:03:38.420Z,77.00
2018-05-02T21:06:12.236Z,77.10
2018-05-02T21:08:45.958Z,77.40
2018-05-02T21:11:19.723Z,77.60
2018-05-02T21:13:53.369Z,77.60
2018-05-02T21:16:27.952Z,77.60
2018-05-02T21:19:01.720Z,77.60
2018-05-02T21:21:36.454Z,77.70
2018-05-02T21:24:10.338Z,77.70
2018-05-02T21:26:44.898Z,77.50
2018-05-02T21:29:18.668Z,77.40
2018-05-02T21:31:52.473Z,77.70
2018-05-02T21:34:26.335Z,78.10
2018-05-02T21:36:59.926Z,78.00
2018-05-02T21:39:33.740Z,78.30
2018-05-02T21:42:07.405Z,78.00
2018-05-02T21:44:41.954Z,78.60
2018-05-02T21:47:15.734Z,78.50
2018-05-02T21:49:49.519Z,79.00
2018-05-02T21:52:23.261Z,78.60
2018-05-02T21:54:56.928Z,78.60
2018-05-02T21:57:30.696Z,78.40
2018-05-02T22:00:05.264Z,78.00
2018-05-02T22:02:39.017Z,78.10
2018-05-02T22:05:13.663Z,77.90
2018-05-02T22:07:47.336Z,77.90
2018-05-02T22:10:21.008Z,77.50
2018-05-02T22:12:54.773Z,77.70
2018-05-02T22:15:28.477Z,77.70
2018-05-02T22:18:02.282Z,76.60
2018-05-02T22:20:36.015Z,77.10
2018-05-02T22:23:09.733Z,77.40
2018-05-02T22:25:43.520Z,78.00
2018-05-02T22:28:17.352Z,78.00
2018-05-02T22:30:51.131Z,77.30
2018-05-02T22:33:24.943Z,77.40
2018-05-02T22:35:58.698Z,77.60
2018-05-02T22:38:33.369Z,78.20
2018-05-02T22:41:06.936Z,78.20
2018-05-02T22:43:40.660Z,78.00
2018-05-02T22:46:14.548Z,78.20
2018-05-02T22:48:48.242Z,78.10
2018-05-02T22:51:22.765Z,78.70
2018-05-02T22:53:57.401Z,79.10
2018-05-02T22:56:31.137Z,79.10
2018-05-02T22:59:04.956Z,79.30
2018-05-02T23:01:39.507Z,79.50
2018-05-02T23:04:13.301Z,79.30
2018-05-02T23:06:47.096Z,79.90
2018-05-02T23:09:21.656Z,80.30
2018-05-02T23:11:56.292Z,80.10
2018-05-02T23:14:30.097Z,80.10
2018-05-02T23:17:03.821Z,80.30
2018-05-02T23:19:38.292Z,80.60
2018-05-02T23:22:11.951Z,80.60
2018-05-02T23:24:47.272Z,81.90
2018-05-02T23:27:21.064Z,81.90
2018-05-02T23:29:54.660Z,81.60
2018-05-02T23:32:28.540Z,82.10
2018-05-02T23:35:02.348Z,81.80
2018-05-02T23:37:36.042Z,82.70
2018-05-02T23:40:10.591Z,83.20
2018-05-02T23:42:44.252Z,83.10
2018-05-02T23:45:18.033Z,83.30
2018-05-02T23:47:51.811Z,83.40
2018-05-02T23:50:25.671Z,83.70
2018-05-02T23:53:00.331Z,83.20
2018-05-02T23:55:34.004Z,83.70
2018-05-02T23:58:08.565Z,84.20
